Time;durP1;ratioP1;P1;durP2;ratioP2;P2;SDS_P1;SDS_P2;PMS_P1;PMS_P2;Temp;Humidity;BMP_temperature;BMP_pressure;BME280_temperature;BME280_humidity;BME280_pressure;Samples;Min_cycle;Max_cycle;Signal;HPM_P1;HPM_P2
2022/08/17 00:00:27;;;;;;;9.83;8.00;;;;;;;;;;1852499;77;26522;-47
2022/08/17 00:02:56;;;;;;;10.60;8.13;;;;;;;;;;1854130;76;26243;-45
2022/08/17 00:05:23;;;;;;;11.12;7.90;;;;;;;;;;1845518;76;26281;-44
2022/08/17 00:07:51;;;;;;;11.15;8.13;;;;;;;;;;1847470;77;26218;-44
2022/08/17 00:10:18;;;;;;;9.40;8.28;;;;;;;;;;1851563;77;26203;-45
2022/08/17 00:12:45;;;;;;;8.68;7.87;;;;;;;;;;1855075;77;26255;-44
2022/08/17 00:15:13;;;;;;;8.90;8.00;;;;;;;;;;1842334;77;27452;-46
2022/08/17 00:17:43;;;;;;;9.95;8.30;;;;;;;;;;1862903;76;26359;-45
2022/08/17 00:20:12;;;;;;;11.30;8.43;;;;;;;;;;1859203;77;26746;-46
2022/08/17 00:22:39;;;;;;;11.15;8.48;;;;;;;;;;1863066;76;26299;-45
2022/08/17 00:25:08;;;;;;;9.45;8.20;;;;;;;;;;1846943;77;26823;-46
2022/08/17 00:27:35;;;;;;;11.78;7.95;;;;;;;;;;1852919;76;26273;-43
2022/08/17 00:30:04;;;;;;;9.08;8.18;;;;;;;;;;1863298;77;26753;-45
2022/08/17 00:32:39;;;;;;;11.35;7.92;;;;;;;;;;1862833;77;26270;-45
2022/08/17 00:35:08;;;;;;;8.93;7.75;;;;;;;;;;1862413;76;26255;-44
2022/08/17 00:37:35;;;;;;;8.90;8.00;;;;;;;;;;1861941;77;26332;-46
2022/08/17 00:40:03;;;;;;;8.55;7.60;;;;;;;;;;1860414;75;26389;-44
2022/08/17 00:42:30;;;;;;;9.08;7.80;;;;;;;;;;1846099;77;26249;-46
2022/08/17 00:44:58;;;;;;;8.88;7.95;;;;;;;;;;1859836;75;26298;-44
2022/08/17 00:47:25;;;;;;;9.20;7.95;;;;;;;;;;1859978;76;26785;-45
2022/08/17 00:49:53;;;;;;;8.80;7.80;;;;;;;;;;1860368;77;26278;-43
2022/08/17 00:52:22;;;;;;;8.25;7.55;;;;;;;;;;1861510;75;26278;-45
2022/08/17 00:54:51;;;;;;;9.15;8.20;;;;;;;;;;1853840;77;26371;-49
2022/08/17 00:57:19;;;;;;;8.75;7.80;;;;;;;;;;1850988;76;26348;-48
2022/08/17 00:59:48;;;;;;;9.13;8.28;;;;;;;;;;1839416;76;26298;-49
2022/08/17 01:02:17;;;;;;;10.08;8.25;;;;;;;;;;1845730;76;26293;-47
2022/08/17 01:04:45;;;;;;;11.95;8.45;;;;;;;;;;1839407;76;26283;-47
2022/08/17 01:07:13;;;;;;;11.43;7.80;;;;;;;;;;1844718;76;26254;-46
2022/08/17 01:09:41;;;;;;;10.15;8.23;;;;;;;;;;1842606;76;26258;-47
2022/08/17 01:12:09;;;;;;;9.28;8.33;;;;;;;;;;1846111;76;26360;-45
2022/08/17 01:14:37;;;;;;;8.85;7.95;;;;;;;;;;1852542;76;26313;-45
2022/08/17 01:17:05;;;;;;;9.10;8.15;;;;;;;;;;1857697;75;26667;-44
2022/08/17 01:19:34;;;;;;;9.80;8.13;;;;;;;;;;1851200;76;26338;-46
2022/08/17 01:22:03;;;;;;;8.80;7.75;;;;;;;;;;1836914;77;26337;-44
2022/08/17 01:24:32;;;;;;;9.75;8.50;;;;;;;;;;1847863;76;26268;-45
2022/08/17 01:27:00;;;;;;;12.88;8.20;;;;;;;;;;1866164;75;26227;-46
2022/08/17 01:29:31;;;;;;;8.98;8.08;;;;;;;;;;1861206;76;27252;-47
2022/08/17 01:31:59;;;;;;;10.48;8.60;;;;;;;;;;1851915;77;26216;-46
2022/08/17 01:34:27;;;;;;;9.00;7.60;;;;;;;;;;1855535;76;26270;-46
2022/08/17 01:36:54;;;;;;;11.25;8.35;;;;;;;;;;1859464;76;26262;-45
2022/08/17 01:39:28;;;;;;;8.75;7.85;;;;;;;;;;1855934;77;26286;-47
2022/08/17 01:41:57;;;;;;;10.95;8.63;;;;;;;;;;1851291;76;26363;-47
2022/08/17 01:44:25;;;;;;;10.48;8.50;;;;;;;;;;1857634;76;26650;-46
2022/08/17 01:46:52;;;;;;;9.00;8.20;;;;;;;;;;1859912;76;26274;-47
2022/08/17 01:49:20;;;;;;;9.53;7.95;;;;;;;;;;1869120;75;26332;-46
2022/08/17 01:51:47;;;;;;;9.08;8.18;;;;;;;;;;1855562;76;26351;-47
2022/08/17 01:54:16;;;;;;;9.40;8.45;;;;;;;;;;1862584;76;26781;-44
2022/08/17 01:56:45;;;;;;;12.47;8.23;;;;;;;;;;1859967;76;26266;-46
2022/08/17 01:59:13;;;;;;;8.93;8.03;;;;;;;;;;1860443;76;26253;-46
2022/08/17 02:01:40;;;;;;;9.05;8.15;;;;;;;;;;1858560;75;26309;-51
2022/08/17 02:04:07;;;;;;;9.10;8.20;;;;;;;;;;1851768;76;26226;-48
2022/08/17 02:06:36;;;;;;;9.28;8.33;;;;;;;;;;1838669;77;26261;-46
2022/08/17 02:09:04;;;;;;;8.83;7.90;;;;;;;;;;1838241;75;26281;-48
2022/08/17 02:11:33;;;;;;;11.43;8.23;;;;;;;;;;1834165;77;26844;-49
2022/08/17 02:14:00;;;;;;;8.93;8.03;;;;;;;;;;1840114;76;26762;-45
2022/08/17 02:16:28;;;;;;;9.28;8.25;;;;;;;;;;1841843;76;26271;-47
2022/08/17 02:18:55;;;;;;;11.25;8.05;;;;;;;;;;1845510;75;26703;-49
2022/08/17 02:21:22;;;;;;;11.00;8.00;;;;;;;;;;1837134;77;26858;-46
2022/08/17 02:23:50;;;;;;;11.55;7.83;;;;;;;;;;1847263;75;26336;-46
2022/08/17 02:26:17;;;;;;;12.10;7.70;;;;;;;;;;1850325;76;26873;-49
2022/08/17 02:28:45;;;;;;;13.60;8.45;;;;;;;;;;1860195;77;26714;-44
2022/08/17 02:31:12;;;;;;;10.13;8.40;;;;;;;;;;1859688;76;26352;-47
2022/08/17 02:33:40;;;;;;;10.43;8.33;;;;;;;;;;1859069;77;26274;-46
2022/08/17 02:36:10;;;;;;;10.90;8.63;;;;;;;;;;1847449;76;26250;-44
2022/08/17 02:38:38;;;;;;;9.80;8.80;;;;;;;;;;1850750;76;26819;-45
2022/08/17 02:41:06;;;;;;;8.98;7.97;;;;;;;;;;1846973;76;26384;-44
2022/08/17 02:43:33;;;;;;;9.00;8.10;;;;;;;;;;1835206;77;26249;-49
2022/08/17 02:46:01;;;;;;;9.13;8.23;;;;;;;;;;1845165;76;27406;-45
2022/08/17 02:48:28;;;;;;;10.70;8.60;;;;;;;;;;1851153;77;26313;-45
2022/08/17 02:50:55;;;;;;;9.33;8.13;;;;;;;;;;1860774;75;26328;-45
2022/08/17 02:53:22;;;;;;;10.60;9.05;;;;;;;;;;1859383;77;26262;-45
2022/08/17 02:55:50;;;;;;;8.98;8.00;;;;;;;;;;1855779;76;26348;-44
2022/08/17 02:58:17;;;;;;;10.15;8.38;;;;;;;;;;1852479;75;26326;-46
2022/08/17 03:00:48;;;;;;;9.58;8.53;;;;;;;;;;1850105;76;26352;-45
2022/08/17 03:03:19;;;;;;;9.83;8.83;;;;;;;;;;1858904;76;26295;-45
2022/08/17 03:05:47;;;;;;;13.00;8.70;;;;;;;;;;1854699;76;26361;-46
2022/08/17 03:08:15;;;;;;;8.93;8.00;;;;;;;;;;1854974;76;26262;-44
2022/08/17 03:10:43;;;;;;;12.65;8.48;;;;;;;;;;1840580;77;26270;-47
2022/08/17 03:13:13;;;;;;;10.58;8.05;;;;;;;;;;1860721;76;26311;-49
2022/08/17 03:15:43;;;;;;;9.90;8.90;;;;;;;;;;1860011;76;26352;-47
2022/08/17 03:18:11;;;;;;;9.50;8.53;;;;;;;;;;1849613;76;26931;-49
2022/08/17 03:20:39;;;;;;;9.58;8.65;;;;;;;;;;1860277;76;26769;-45
2022/08/17 03:23:06;;;;;;;11.10;8.78;;;;;;;;;;1848538;77;26309;-47
2022/08/17 03:25:35;;;;;;;11.25;8.88;;;;;;;;;;1836865;75;26278;-44
2022/08/17 03:28:03;;;;;;;10.45;9.30;;;;;;;;;;1860232;77;26352;-46
2022/08/17 03:30:30;;;;;;;10.72;8.73;;;;;;;;;;1860722;77;26218;-47
2022/08/17 03:32:59;;;;;;;10.98;9.45;;;;;;;;;;1855063;76;26378;-47
2022/08/17 03:35:28;;;;;;;12.35;8.60;;;;;;;;;;1859421;76;26286;-51
2022/08/17 03:37:55;;;;;;;10.20;9.20;;;;;;;;;;1860010;76;26271;-48
2022/08/17 03:40:22;;;;;;;9.93;8.90;;;;;;;;;;1860159;76;26348;-46
2022/08/17 03:42:54;;;;;;;10.63;9.40;;;;;;;;;;1842596;77;26309;-44
2022/08/17 03:58:51;;;;;;;12.18;10.45;;;;;;;;;;1856869;76;26822;-47
2022/08/17 04:01:18;;;;;;;12.13;10.32;;;;;;;;;;1855408;76;26757;-50
2022/08/17 04:03:46;;;;;;;12.07;10.48;;;;;;;;;;1858927;76;27589;-49
2022/08/17 04:06:14;;;;;;;14.33;10.82;;;;;;;;;;1844404;76;27274;-47
2022/08/17 04:08:41;;;;;;;11.43;10.18;;;;;;;;;;1855142;76;26335;-45
2022/08/17 04:11:09;;;;;;;12.65;10.90;;;;;;;;;;1847153;77;26348;-48
2022/08/17 04:13:36;;;;;;;13.10;10.88;;;;;;;;;;1860254;77;27403;-45
2022/08/17 04:16:04;;;;;;;13.43;11.30;;;;;;;;;;1860436;76;26765;-46
2022/08/17 04:18:31;;;;;;;14.03;11.12;;;;;;;;;;1855453;76;26775;-48
2022/08/17 04:20:59;;;;;;;14.00;11.50;;;;;;;;;;1853690;76;26277;-45
2022/08/17 04:23:31;;;;;;;12.75;11.38;;;;;;;;;;1848406;75;26340;-45
2022/08/17 04:25:55;;;;;;;12.93;11.53;;;;;;;;;;1835990;76;26635;-46
2022/08/17 04:28:22;;;;;;;14.50;12.07;;;;;;;;;;1834108;76;26253;-45
2022/08/17 04:30:49;;;;;;;13.72;11.70;;;;;;;;;;1840908;76;26278;-44
2022/08/17 04:33:18;;;;;;;13.85;11.53;;;;;;;;;;1853912;76;26737;-44
2022/08/17 04:35:49;;;;;;;13.60;11.55;;;;;;;;;;1845536;76;26270;-45
2022/08/17 04:38:18;;;;;;;12.78;11.30;;;;;;;;;;1847435;75;26291;-45
2022/08/17 04:43:32;;;;;;;14.65;12.33;;;;;;;;;;1852442;77;26318;-45
2022/08/17 04:46:01;;;;;;;13.48;11.68;;;;;;;;;;1847288;77;26329;-46
2022/08/17 04:48:30;;;;;;;13.80;12.18;;;;;;;;;;1856811;76;26263;-45
2022/08/17 04:50:58;;;;;;;13.38;11.83;;;;;;;;;;1856290;77;26691;-48
2022/08/17 04:53:26;;;;;;;14.75;12.23;;;;;;;;;;1860072;76;26357;-48
2022/08/17 04:55:54;;;;;;;13.68;12.23;;;;;;;;;;1857557;76;26309;-45
2022/08/17 04:58:21;;;;;;;12.98;11.68;;;;;;;;;;1854337;76;26270;-46
2022/08/17 05:00:48;;;;;;;16.70;12.68;;;;;;;;;;1859635;76;26274;-46
2022/08/17 05:03:15;;;;;;;15.40;12.23;;;;;;;;;;1860039;77;26258;-45
2022/08/17 05:05:48;;;;;;;16.37;11.97;;;;;;;;;;1856547;76;27073;-46
2022/08/17 05:08:12;;;;;;;15.03;11.73;;;;;;;;;;1849526;76;26359;-47
2022/08/17 05:10:39;;;;;;;12.90;11.57;;;;;;;;;;1849973;76;26860;-44
2022/08/17 05:13:08;;;;;;;12.15;10.95;;;;;;;;;;1847318;76;26290;-46
2022/08/17 05:15:36;;;;;;;13.03;11.48;;;;;;;;;;1845620;76;26227;-45
2022/08/17 05:18:04;;;;;;;13.00;11.68;;;;;;;;;;1852828;76;25704;-44
2022/08/17 05:20:31;;;;;;;12.93;11.63;;;;;;;;;;1860316;75;26329;-46
2022/08/17 05:23:00;;;;;;;13.98;12.05;;;;;;;;;;1843502;75;27314;-44
2022/08/17 05:25:29;;;;;;;16.02;11.73;;;;;;;;;;1853654;76;26754;-45
2022/08/17 05:27:57;;;;;;;13.22;11.48;;;;;;;;;;1838024;77;26908;-46
2022/08/17 05:30:25;;;;;;;13.08;11.18;;;;;;;;;;1849886;75;26255;-47
2022/08/17 05:32:54;;;;;;;14.33;11.43;;;;;;;;;;1849991;77;26732;-45
2022/08/17 05:35:21;;;;;;;12.78;11.48;;;;;;;;;;1854131;76;26238;-47
2022/08/17 05:37:49;;;;;;;15.63;12.05;;;;;;;;;;1852749;76;26261;-44
2022/08/17 05:40:18;;;;;;;15.20;11.33;;;;;;;;;;1852758;76;26746;-46
2022/08/17 05:42:46;;;;;;;12.33;10.90;;;;;;;;;;1851437;75;26319;-51
2022/08/17 05:45:15;;;;;;;11.80;10.60;;;;;;;;;;1853639;75;26314;-45
2022/08/17 05:47:44;;;;;;;16.00;11.18;;;;;;;;;;1850322;76;26750;-45
2022/08/17 05:50:13;;;;;;;13.03;11.65;;;;;;;;;;1838688;76;26277;-45
2022/08/17 05:52:58;;;;;;;13.00;11.60;;;;;;;;;;1851505;77;26812;-47
2022/08/17 05:55:29;;;;;;;14.05;11.95;;;;;;;;;;1848562;76;26770;-44
2022/08/17 05:58:10;;;;;;;17.02;11.55;;;;;;;;;;1855643;75;26223;-43
2022/08/17 06:00:39;;;;;;;12.53;11.30;;;;;;;;;;1856937;75;26272;-41
2022/08/17 06:03:20;;;;;;;13.53;11.80;;;;;;;;;;1853177;75;26276;-48
2022/08/17 06:05:55;;;;;;;12.90;11.55;;;;;;;;;;1852075;75;27404;-47
2022/08/17 06:08:42;;;;;;;12.23;11.03;;;;;;;;;;1858044;77;26571;-48
2022/08/17 06:11:11;;;;;;;13.95;11.25;;;;;;;;;;1854919;76;26760;-45
2022/08/17 06:13:40;;;;;;;14.20;11.80;;;;;;;;;;1853584;76;25662;-48
2022/08/17 06:16:19;;;;;;;13.20;11.63;;;;;;;;;;1847873;75;27437;-45
2022/08/17 06:18:48;;;;;;;11.60;10.50;;;;;;;;;;1857130;76;26420;-47
2022/08/17 06:21:16;;;;;;;12.47;10.98;;;;;;;;;;1836427;76;26294;-45
2022/08/17 06:23:51;;;;;;;12.80;10.95;;;;;;;;;;1843248;75;26348;-49
2022/08/17 06:26:20;;;;;;;11.88;10.15;;;;;;;;;;1850873;75;26277;-49
2022/08/17 06:29:07;;;;;;;11.38;10.05;;;;;;;;;;1854892;75;26290;-50
2022/08/17 06:31:34;;;;;;;10.88;9.83;;;;;;;;;;1847941;75;26289;-49
2022/08/17 06:34:03;;;;;;;10.78;9.40;;;;;;;;;;1851064;75;27396;-48
2022/08/17 06:36:34;;;;;;;10.38;9.35;;;;;;;;;;1851635;77;26266;-49
2022/08/17 06:39:03;;;;;;;9.73;8.55;;;;;;;;;;1844113;76;26368;-47
2022/08/17 06:41:35;;;;;;;10.60;9.10;;;;;;;;;;1848777;76;26271;-45
2022/08/17 06:44:04;;;;;;;10.05;9.05;;;;;;;;;;1843061;77;26314;-46
2022/08/17 06:46:36;;;;;;;9.90;8.68;;;;;;;;;;1849669;76;26752;-48
2022/08/17 06:49:09;;;;;;;9.53;8.60;;;;;;;;;;1851024;77;26270;-49
2022/08/17 06:51:45;;;;;;;9.10;8.30;;;;;;;;;;1848290;77;26291;-45
2022/08/17 06:54:13;;;;;;;9.48;8.48;;;;;;;;;;1847270;76;26762;-44
2022/08/17 06:56:45;;;;;;;9.78;8.40;;;;;;;;;;1844418;76;26606;-45
2022/08/17 06:59:16;;;;;;;8.75;7.95;;;;;;;;;;1841628;76;26281;-46
2022/08/17 07:01:45;;;;;;;8.45;7.75;;;;;;;;;;1842434;76;26953;-46
2022/08/17 07:04:14;;;;;;;8.63;7.83;;;;;;;;;;1855511;76;26282;-46
2022/08/17 07:06:42;;;;;;;8.58;7.83;;;;;;;;;;1848178;77;26326;-49
2022/08/17 07:09:11;;;;;;;8.03;7.33;;;;;;;;;;1856400;76;26290;-47
2022/08/17 07:11:49;;;;;;;8.00;7.33;;;;;;;;;;1850482;77;26293;-45
2022/08/17 07:14:35;;;;;;;8.43;7.72;;;;;;;;;;1849469;76;27268;-45
2022/08/17 07:17:04;;;;;;;8.40;7.60;;;;;;;;;;1856261;76;26239;-47
2022/08/17 07:19:32;;;;;;;7.83;7.22;;;;;;;;;;1857188;77;26279;-47
2022/08/17 07:22:18;;;;;;;8.35;7.65;;;;;;;;;;1853499;76;26356;-50
2022/08/17 07:24:50;;;;;;;7.72;7.12;;;;;;;;;;1853233;76;26282;-45
2022/08/17 07:27:26;;;;;;;7.58;6.97;;;;;;;;;;1838991;76;26386;-45
2022/08/17 07:30:04;;;;;;;7.62;7.03;;;;;;;;;;1840769;76;26723;-47
2022/08/17 07:32:33;;;;;;;7.30;6.70;;;;;;;;;;1844925;76;26363;-45
2022/08/17 07:35:07;;;;;;;7.78;7.17;;;;;;;;;;1841178;76;26387;-47
2022/08/17 07:37:37;;;;;;;8.03;7.22;;;;;;;;;;1846019;76;26364;-46
2022/08/17 07:40:06;;;;;;;7.37;6.78;;;;;;;;;;1849896;77;26787;-44
2022/08/17 07:42:33;;;;;;;7.35;6.75;;;;;;;;;;1856049;77;26318;-46
2022/08/17 07:48:17;;;;;;;6.90;6.40;;;;;;;;;;1856157;77;26904;-44
2022/08/17 07:50:28;;;;;;;7.75;6.97;;;;;;;;;;1863335;77;26267;-44
2022/08/17 07:52:58;;;;;;;7.12;6.53;;;;;;;;;;1862940;76;26266;-46
2022/08/17 07:55:26;;;;;;;6.97;6.37;;;;;;;;;;1856911;75;26741;-44
2022/08/17 07:57:56;;;;;;;6.80;6.20;;;;;;;;;;1851497;76;26270;-48
2022/08/17 08:00:23;;;;;;;7.60;7.00;;;;;;;;;;1857970;77;26234;-49
2022/08/17 08:03:01;;;;;;;7.30;6.70;;;;;;;;;;1856634;77;26947;-48
2022/08/17 08:05:30;;;;;;;7.15;6.60;;;;;;;;;;1848937;76;26385;-48
2022/08/17 08:07:59;;;;;;;7.35;6.65;;;;;;;;;;1848513;75;26279;-47
2022/08/17 08:10:28;;;;;;;6.90;6.40;;;;;;;;;;1862157;76;26310;-46
2022/08/17 08:12:57;;;;;;;7.55;6.58;;;;;;;;;;1861926;77;26747;-48
2022/08/17 08:15:25;;;;;;;8.05;6.40;;;;;;;;;;1851798;77;26889;-51
2022/08/17 08:17:54;;;;;;;7.10;6.30;;;;;;;;;;1850994;76;26897;-50
2022/08/17 08:20:24;;;;;;;6.72;6.05;;;;;;;;;;1856282;76;26341;-50
2022/08/17 08:22:52;;;;;;;7.35;6.08;;;;;;;;;;1849200;77;26348;-47
2022/08/17 08:25:24;;;;;;;6.95;6.20;;;;;;;;;;1848547;77;26291;-46
2022/08/17 08:27:56;;;;;;;6.60;6.10;;;;;;;;;;1851065;76;26264;-50
2022/08/17 08:30:23;;;;;;;6.60;6.00;;;;;;;;;;1852304;77;26299;-53
2022/08/17 08:32:58;;;;;;;6.70;6.17;;;;;;;;;;1847490;77;26292;-49
2022/08/17 08:35:30;;;;;;;6.47;5.97;;;;;;;;;;1860839;77;26722;-47
2022/08/17 08:38:15;;;;;;;6.20;5.70;;;;;;;;;;1852073;76;26308;-50
2022/08/17 08:40:44;;;;;;;6.45;5.95;;;;;;;;;;1846440;77;26279;-47
2022/08/17 08:43:13;;;;;;;6.22;5.72;;;;;;;;;;1856823;77;26419;-46
2022/08/17 08:45:42;;;;;;;5.95;5.55;;;;;;;;;;1862861;76;26290;-52
2022/08/17 08:48:26;;;;;;;6.15;5.60;;;;;;;;;;1856411;76;26360;-51
2022/08/17 08:51:01;;;;;;;5.83;5.33;;;;;;;;;;1860301;77;26294;-47
2022/08/17 08:53:33;;;;;;;6.05;5.60;;;;;;;;;;1850452;76;26564;-54
2022/08/17 08:56:11;;;;;;;6.10;5.60;;;;;;;;;;1855740;77;26282;-46
2022/08/17 08:58:43;;;;;;;5.78;5.35;;;;;;;;;;1847676;76;26362;-46
2022/08/17 09:01:12;;;;;;;5.65;5.25;;;;;;;;;;1852524;77;27266;-49
2022/08/17 09:03:55;;;;;;;5.60;5.10;;;;;;;;;;1861719;77;26299;-53
2022/08/17 09:06:33;;;;;;;5.50;5.10;;;;;;;;;;1844511;77;26290;-51
2022/08/17 09:09:08;;;;;;;5.62;5.22;;;;;;;;;;1846244;77;26391;-46
2022/08/17 09:11:49;;;;;;;5.55;5.15;;;;;;;;;;1854859;77;26336;-46
2022/08/17 09:14:18;;;;;;;5.62;5.22;;;;;;;;;;1838803;77;26812;-51
2022/08/17 09:16:47;;;;;;;5.58;5.03;;;;;;;;;;1862171;76;26296;-49
2022/08/17 09:19:18;;;;;;;5.60;5.20;;;;;;;;;;1860904;76;26301;-48
2022/08/17 09:21:48;;;;;;;5.30;5.00;;;;;;;;;;1850304;77;26610;-47
2022/08/17 09:24:19;;;;;;;5.12;4.80;;;;;;;;;;1852138;76;26274;-46
2022/08/17 09:26:52;;;;;;;5.62;5.12;;;;;;;;;;1859322;77;26350;-48
2022/08/17 09:29:24;;;;;;;4.92;4.62;;;;;;;;;;1840350;77;26415;-47
2022/08/17 09:31:52;;;;;;;4.97;4.67;;;;;;;;;;1854828;77;26282;-52
2022/08/17 09:34:20;;;;;;;5.20;4.80;;;;;;;;;;1851913;76;26298;-52
2022/08/17 09:36:49;;;;;;;5.12;4.72;;;;;;;;;;1846958;77;26274;-48
2022/08/17 09:39:18;;;;;;;4.97;4.60;;;;;;;;;;1861617;77;26344;-52
2022/08/17 09:41:53;;;;;;;5.50;5.10;;;;;;;;;;1859936;77;26340;-48
2022/08/17 09:44:28;;;;;;;5.28;4.97;;;;;;;;;;1862197;76;26311;-47
2022/08/17 09:46:57;;;;;;;4.90;4.60;;;;;;;;;;1857697;76;27439;-48
2022/08/17 09:49:31;;;;;;;5.00;4.70;;;;;;;;;;1858202;75;26754;-50
2022/08/17 09:52:00;;;;;;;4.97;4.58;;;;;;;;;;1849861;76;26332;-52
2022/08/17 09:54:28;;;;;;;5.00;4.70;;;;;;;;;;1849338;76;26401;-49
2022/08/17 09:56:57;;;;;;;5.05;4.65;;;;;;;;;;1837283;76;26293;-45
2022/08/17 09:59:35;;;;;;;5.00;4.60;;;;;;;;;;1845314;76;26298;-49
2022/08/17 10:02:08;;;;;;;4.65;4.35;;;;;;;;;;1857251;76;26274;-53
2022/08/17 10:04:52;;;;;;;4.92;4.55;;;;;;;;;;1845282;77;26251;-46
2022/08/17 10:07:21;;;;;;;4.87;4.58;;;;;;;;;;1858625;75;26351;-47
2022/08/17 10:09:51;;;;;;;4.87;4.58;;;;;;;;;;1858724;77;26301;-49
2022/08/17 10:12:23;;;;;;;5.00;4.62;;;;;;;;;;1857218;76;26241;-53
2022/08/17 10:15:12;;;;;;;4.78;4.47;;;;;;;;;;1859487;77;26291;-48
2022/08/17 10:17:44;;;;;;;5.15;4.83;;;;;;;;;;1857854;76;26255;-50
2022/08/17 10:20:21;;;;;;;4.80;4.50;;;;;;;;;;1857979;76;25601;-46
2022/08/17 10:28:27;;;;;;;4.97;4.58;;;;;;;;;;1840977;76;26316;-47
2022/08/17 10:30:56;;;;;;;5.05;4.65;;;;;;;;;;1844979;76;26337;-47
2022/08/17 10:33:25;;;;;;;5.00;4.70;;;;;;;;;;1844773;76;26398;-44
2022/08/17 10:36:09;;;;;;;5.35;4.80;;;;;;;;;;1845897;76;26262;-45
2022/08/17 10:38:38;;;;;;;4.95;4.55;;;;;;;;;;1845768;76;26281;-48
2022/08/17 10:41:07;;;;;;;4.80;4.50;;;;;;;;;;1846823;76;26266;-44
2022/08/17 10:43:37;;;;;;;4.90;4.60;;;;;;;;;;1843534;77;26355;-44
2022/08/17 10:46:14;;;;;;;5.65;4.60;;;;;;;;;;1842560;76;26315;-45
2022/08/17 10:48:42;;;;;;;5.33;4.75;;;;;;;;;;1839769;76;26337;-45
2022/08/17 10:51:14;;;;;;;4.60;4.30;;;;;;;;;;1853807;75;26287;-43
2022/08/17 10:53:44;;;;;;;5.20;4.83;;;;;;;;;;1854652;77;26277;-49
2022/08/17 10:56:13;;;;;;;4.67;4.37;;;;;;;;;;1846013;76;26305;-45
2022/08/17 10:58:54;;;;;;;4.83;4.47;;;;;;;;;;1839321;76;26368;-47
2022/08/17 11:01:23;;;;;;;4.70;4.30;;;;;;;;;;1854174;76;26810;-49
2022/08/17 11:03:55;;;;;;;4.95;4.55;;;;;;;;;;1836755;77;26293;-46
2022/08/17 11:06:33;;;;;;;4.53;4.12;;;;;;;;;;1854464;77;26289;-47
2022/08/17 11:09:19;;;;;;;4.67;4.37;;;;;;;;;;1860729;77;26281;-44
2022/08/17 11:11:51;;;;;;;5.05;4.50;;;;;;;;;;1848469;76;26328;-47
2022/08/17 11:14:28;;;;;;;4.30;4.10;;;;;;;;;;1831763;77;26298;-46
2022/08/17 11:17:13;;;;;;;4.60;4.30;;;;;;;;;;1860869;76;26333;-46
2022/08/17 11:19:48;;;;;;;4.50;4.20;;;;;;;;;;1855505;77;26301;-49
2022/08/17 11:22:22;;;;;;;7.50;5.20;;;;;;;;;;1847118;76;26816;-47
2022/08/17 11:24:51;;;;;;;4.28;4.05;;;;;;;;;;1847425;77;26308;-50
2022/08/17 11:27:20;;;;;;;4.00;3.80;;;;;;;;;;1854975;76;26268;-45
2022/08/17 11:29:51;;;;;;;5.05;4.53;;;;;;;;;;1845007;77;26278;-48
2022/08/17 11:32:37;;;;;;;4.33;4.03;;;;;;;;;;1842513;77;26537;-46
2022/08/17 11:35:11;;;;;;;4.70;4.30;;;;;;;;;;1841250;76;26305;-47
2022/08/17 11:37:57;;;;;;;4.33;4.10;;;;;;;;;;1865736;76;26322;-49
2022/08/17 11:40:26;;;;;;;4.40;4.10;;;;;;;;;;1842859;76;26411;-46
2022/08/17 11:43:07;;;;;;;4.37;4.08;;;;;;;;;;1853227;77;26274;-46
2022/08/17 11:45:39;;;;;;;4.40;4.10;;;;;;;;;;1850845;76;26302;-47
2022/08/17 11:51:34;;;;;;;4.17;3.95;;;;;;;;;;1840739;76;26333;-46
2022/08/17 11:54:13;;;;;;;4.22;4.03;;;;;;;;;;1844692;76;26380;-46
2022/08/17 11:56:48;;;;;;;4.25;3.90;;;;;;;;;;1836489;77;26675;-47
2022/08/17 11:59:32;;;;;;;4.28;4.00;;;;;;;;;;1866279;76;26681;-47
2022/08/17 12:02:00;;;;;;;3.90;3.70;;;;;;;;;;1858196;76;26763;-50
2022/08/17 12:04:29;;;;;;;3.87;3.67;;;;;;;;;;1860888;77;26388;-47
2022/08/17 12:07:16;;;;;;;3.98;3.70;;;;;;;;;;1860581;77;26365;-46
2022/08/17 12:09:45;;;;;;;3.77;3.58;;;;;;;;;;1854761;77;27487;-45
2022/08/17 12:12:14;;;;;;;4.10;3.90;;;;;;;;;;1858297;76;26266;-44
2022/08/17 12:14:44;;;;;;;3.85;3.65;;;;;;;;;;1857131;77;26252;-45
2022/08/17 12:17:13;;;;;;;3.72;3.52;;;;;;;;;;1859945;76;26722;-45
2022/08/17 12:19:41;;;;;;;4.10;3.80;;;;;;;;;;1857168;76;26582;-46
2022/08/17 12:22:25;;;;;;;3.85;3.65;;;;;;;;;;1860426;76;26242;-45
2022/08/17 12:24:58;;;;;;;4.05;3.83;;;;;;;;;;1843806;76;26297;-54
2022/08/17 12:27:26;;;;;;;3.83;3.62;;;;;;;;;;1855599;76;26856;-48
2022/08/17 12:29:54;;;;;;;3.90;3.70;;;;;;;;;;1850846;77;26298;-50
2022/08/17 12:32:22;;;;;;;3.92;3.72;;;;;;;;;;1855965;77;26727;-46
2022/08/17 12:34:50;;;;;;;4.03;3.72;;;;;;;;;;1856262;77;27554;-46
2022/08/17 12:37:19;;;;;;;4.40;4.10;;;;;;;;;;1859860;76;26237;-45
2022/08/17 12:39:51;;;;;;;3.90;3.70;;;;;;;;;;1866461;76;26353;-46
2022/08/17 12:42:22;;;;;;;3.70;3.50;;;;;;;;;;1847326;76;26295;-46
2022/08/17 12:44:49;;;;;;;3.90;3.60;;;;;;;;;;1861088;77;26298;-45
2022/08/17 12:47:17;;;;;;;3.60;3.40;;;;;;;;;;1860343;75;26260;-46
2022/08/17 12:49:47;;;;;;;4.12;3.92;;;;;;;;;;1852884;75;26343;-46
2022/08/17 12:52:15;;;;;;;3.90;3.60;;;;;;;;;;1851857;75;26762;-49
2022/08/17 12:54:47;;;;;;;3.70;3.50;;;;;;;;;;1857395;76;26368;-45
2022/08/17 12:57:19;;;;;;;3.85;3.65;;;;;;;;;;1852257;77;26376;-45
2022/08/17 12:59:48;;;;;;;4.08;3.77;;;;;;;;;;1857068;76;26262;-45
2022/08/17 13:02:19;;;;;;;4.30;4.00;;;;;;;;;;1844653;76;26799;-48
2022/08/17 13:04:48;;;;;;;3.77;3.58;;;;;;;;;;1860283;77;26302;-47
2022/08/17 13:07:35;;;;;;;4.00;3.70;;;;;;;;;;1859071;76;26286;-48
2022/08/17 13:10:03;;;;;;;3.98;3.67;;;;;;;;;;1844192;77;26282;-48
2022/08/17 13:12:32;;;;;;;3.83;3.62;;;;;;;;;;1858239;75;26266;-45
2022/08/17 13:15:00;;;;;;;3.77;3.58;;;;;;;;;;1853599;77;26282;-50
2022/08/17 13:17:29;;;;;;;3.77;3.55;;;;;;;;;;1851303;76;26253;-47
2022/08/17 13:19:56;;;;;;;4.05;3.75;;;;;;;;;;1856558;77;26343;-45
2022/08/17 13:22:24;;;;;;;4.12;3.77;;;;;;;;;;1855496;75;26343;-45
2022/08/17 13:24:53;;;;;;;6.35;4.40;;;;;;;;;;1862227;75;26258;-47
2022/08/17 13:27:22;;;;;;;6.47;4.67;;;;;;;;;;1856113;77;26861;-45
2022/08/17 13:29:55;;;;;;;5.20;4.70;;;;;;;;;;1858177;75;26708;-48
2022/08/17 13:32:36;;;;;;;5.15;4.62;;;;;;;;;;1848162;77;27446;-47
2022/08/17 13:35:08;;;;;;;7.50;4.67;;;;;;;;;;1855672;77;26258;-45
2022/08/17 13:37:35;;;;;;;5.00;4.65;;;;;;;;;;1854875;75;26321;-47
2022/08/17 13:40:04;;;;;;;5.70;4.90;;;;;;;;;;1855908;75;26340;-45
2022/08/17 13:42:32;;;;;;;8.40;5.28;;;;;;;;;;1859908;77;26282;-47
2022/08/17 13:45:00;;;;;;;6.40;5.62;;;;;;;;;;1852912;76;26325;-47
2022/08/17 13:47:27;;;;;;;6.22;5.58;;;;;;;;;;1859360;76;26363;-45
2022/08/17 13:49:55;;;;;;;10.48;6.62;;;;;;;;;;1863043;76;26379;-47
2022/08/17 13:52:32;;;;;;;8.60;6.08;;;;;;;;;;1857930;77;26339;-46
2022/08/17 13:55:01;;;;;;;6.70;6.08;;;;;;;;;;1853726;75;26360;-45
2022/08/17 13:57:29;;;;;;;6.85;6.15;;;;;;;;;;1856815;76;26333;-47
2022/08/17 13:59:58;;;;;;;7.00;6.30;;;;;;;;;;1859712;75;26309;-45
2022/08/17 14:02:25;;;;;;;8.00;6.30;;;;;;;;;;1847151;76;26420;-44
2022/08/17 14:04:52;;;;;;;9.70;6.55;;;;;;;;;;1854705;77;26767;-45
2022/08/17 14:07:21;;;;;;;6.22;5.72;;;;;;;;;;1852752;77;26629;-45
2022/08/17 14:09:50;;;;;;;7.80;6.25;;;;;;;;;;1857463;75;26593;-45
2022/08/17 14:12:19;;;;;;;6.92;6.22;;;;;;;;;;1860543;77;26341;-45
2022/08/17 14:14:48;;;;;;;8.53;6.40;;;;;;;;;;1862226;76;26605;-47
2022/08/17 14:17:15;;;;;;;7.72;6.45;;;;;;;;;;1860093;76;26341;-46
2022/08/17 14:19:42;;;;;;;8.68;6.20;;;;;;;;;;1857767;75;26331;-49
2022/08/17 14:22:11;;;;;;;7.25;6.35;;;;;;;;;;1841031;77;26361;-47
2022/08/17 14:24:39;;;;;;;7.92;6.80;;;;;;;;;;1846541;77;26217;-47
2022/08/17 14:27:10;;;;;;;7.00;6.40;;;;;;;;;;1863061;77;26333;-47
2022/08/17 14:29:39;;;;;;;7.20;6.50;;;;;;;;;;1863017;75;26366;-45
2022/08/17 14:32:11;;;;;;;7.83;7.12;;;;;;;;;;1869518;76;26747;-45
2022/08/17 14:34:38;;;;;;;7.65;6.80;;;;;;;;;;1863321;75;26746;-45
2022/08/17 14:37:06;;;;;;;7.80;7.00;;;;;;;;;;1852549;75;26255;-49
2022/08/17 14:39:33;;;;;;;7.35;6.65;;;;;;;;;;1858557;77;26631;-45
2022/08/17 14:42:01;;;;;;;7.65;6.78;;;;;;;;;;1862846;75;26786;-47
2022/08/17 14:44:28;;;;;;;8.58;6.53;;;;;;;;;;1853760;77;26266;-51
2022/08/17 14:46:56;;;;;;;8.05;6.90;;;;;;;;;;1853290;76;26550;-46
2022/08/17 14:49:24;;;;;;;8.43;6.60;;;;;;;;;;1858281;75;26742;-47
2022/08/17 14:51:52;;;;;;;9.10;6.55;;;;;;;;;;1849095;76;26431;-46
2022/08/17 14:54:20;;;;;;;10.25;6.53;;;;;;;;;;1856634;76;26347;-46
2022/08/17 14:56:47;;;;;;;6.70;6.05;;;;;;;;;;1854200;75;26305;-45
2022/08/17 14:59:15;;;;;;;7.83;6.40;;;;;;;;;;1862059;76;26258;-47
2022/08/17 15:01:45;;;;;;;6.95;6.35;;;;;;;;;;1852707;76;26348;-48
2022/08/17 15:04:15;;;;;;;6.92;6.22;;;;;;;;;;1858742;76;26275;-47
2022/08/17 15:06:41;;;;;;;7.78;6.65;;;;;;;;;;1859080;76;26700;-45
2022/08/17 15:09:08;;;;;;;6.58;5.97;;;;;;;;;;1859482;75;26306;-50
2022/08/17 15:11:35;;;;;;;7.33;6.62;;;;;;;;;;1860321;75;26262;-46
2022/08/17 15:14:02;;;;;;;6.55;5.83;;;;;;;;;;1859959;77;26298;-48
2022/08/17 15:16:30;;;;;;;7.20;5.90;;;;;;;;;;1859852;77;26711;-51
2022/08/17 15:18:57;;;;;;;6.15;5.60;;;;;;;;;;1860750;76;26210;-45
2022/08/17 15:21:24;;;;;;;6.22;5.72;;;;;;;;;;1859119;76;26367;-47